sensor_id;sensor_type;location;lat;lon;timestamp;temperature;humidity
20504;DHT22;10410;51.046;6.980;2023-09-19T00:00:25;16.30;99.90
20504;DHT22;10410;51.046;6.980;2023-09-19T00:07:27;16.30;99.90
20504;DHT22;10410;51.046;6.980;2023-09-19T00:14:28;16.20;99.90
20504;DHT22;10410;51.046;6.980;2023-09-19T00:21:31;16.10;99.90
20504;DHT22;10410;51.046;6.980;2023-09-19T00:28:31;16.10;99.90
20504;DHT22;10410;51.046;6.980;2023-09-19T00:35:32;16.00;99.90
20504;DHT22;10410;51.046;6.980;2023-09-19T00:42:33;15.90;99.90
20504;DHT22;10410;51.046;6.980;2023-09-19T00:49:34;15.90;99.90
20504;DHT22;10410;51.046;6.980;2023-09-19T00:56:34;15.80;99.90
20504;DHT22;10410;51.046;6.980;2023-09-19T01:03:38;15.80;99.90
20504;DHT22;10410;51.046;6.980;2023-09-19T01:10:50;15.80;99.90
20504;DHT22;10410;51.046;6.980;2023-09-19T01:32:40;15.80;99.90
20504;DHT22;10410;51.046;6.980;2023-09-19T01:39:41;15.90;99.90
20504;DHT22;10410;51.046;6.980;2023-09-19T01:46:41;15.90;99.90
20504;DHT22;10410;51.046;6.980;2023-09-19T02:00:49;15.90;99.90
20504;DHT22;10410;51.046;6.980;2023-09-19T02:07:52;16.00;99.90
20504;DHT22;10410;51.046;6.980;2023-09-19T02:14:53;16.00;99.90
20504;DHT22;10410;51.046;6.980;2023-09-19T02:21:54;16.00;99.90
20504;DHT22;10410;51.046;6.980;2023-09-19T02:28:55;16.00;99.90
20504;DHT22;10410;51.046;6.980;2023-09-19T02:35:56;15.90;99.90
20504;DHT22;10410;51.046;6.980;2023-09-19T02:43:00;15.90;99.90
20504;DHT22;10410;51.046;6.980;2023-09-19T02:50:02;15.80;99.90
20504;DHT22;10410;51.046;6.980;2023-09-19T02:57:02;15.80;99.90
20504;DHT22;10410;51.046;6.980;2023-09-19T03:04:07;15.70;99.90
20504;DHT22;10410;51.046;6.980;2023-09-19T03:11:09;15.70;99.90
20504;DHT22;10410;51.046;6.980;2023-09-19T03:18:13;15.70;99.90
20504;DHT22;10410;51.046;6.980;2023-09-19T03:25:14;15.60;99.90
20504;DHT22;10410;51.046;6.980;2023-09-19T03:32:17;15.50;99.90
20504;DHT22;10410;51.046;6.980;2023-09-19T03:39:19;15.40;99.90
20504;DHT22;10410;51.046;6.980;2023-09-19T03:46:20;15.30;99.90
20504;DHT22;10410;51.046;6.980;2023-09-19T03:53:21;15.30;99.90
20504;DHT22;10410;51.046;6.980;2023-09-19T04:00:22;15.30;99.90
20504;DHT22;10410;51.046;6.980;2023-09-19T04:07:26;15.20;99.90
20504;DHT22;10410;51.046;6.980;2023-09-19T04:14:29;15.20;99.90
20504;DHT22;10410;51.046;6.980;2023-09-19T04:21:30;15.10;99.90
20504;DHT22;10410;51.046;6.980;2023-09-19T04:28:31;15.10;99.90
20504;DHT22;10410;51.046;6.980;2023-09-19T04:35:33;15.00;99.90
20504;DHT22;10410;51.046;6.980;2023-09-19T04:42:34;15.00;99.90
20504;DHT22;10410;51.046;6.980;2023-09-19T04:49:35;14.90;99.90
20504;DHT22;10410;51.046;6.980;2023-09-19T04:56:36;14.90;99.90
20504;DHT22;10410;51.046;6.980;2023-09-19T05:03:36;14.90;99.90
20504;DHT22;10410;51.046;6.980;2023-09-19T05:10:37;14.90;99.90
20504;DHT22;10410;51.046;6.980;2023-09-19T05:17:38;14.90;99.90
20504;DHT22;10410;51.046;6.980;2023-09-19T05:24:39;14.80;99.90
20504;DHT22;10410;51.046;6.980;2023-09-19T05:31:39;14.80;99.90
20504;DHT22;10410;51.046;6.980;2023-09-19T05:38:41;14.80;99.90
20504;DHT22;10410;51.046;6.980;2023-09-19T05:45:42;14.80;99.90
20504;DHT22;10410;51.046;6.980;2023-09-19T05:52:42;14.90;99.90
20504;DHT22;10410;51.046;6.980;2023-09-19T05:59:44;15.00;99.90
20504;DHT22;10410;51.046;6.980;2023-09-19T06:06:45;14.90;99.90
20504;DHT22;10410;51.046;6.980;2023-09-19T06:13:48;15.10;99.90
20504;DHT22;10410;51.046;6.980;2023-09-19T06:20:49;15.20;99.90
20504;DHT22;10410;51.046;6.980;2023-09-19T06:27:52;15.30;99.90
20504;DHT22;10410;51.046;6.980;2023-09-19T06:34:53;15.30;99.90
20504;DHT22;10410;51.046;6.980;2023-09-19T06:41:59;15.30;99.90
20504;DHT22;10410;51.046;6.980;2023-09-19T06:49:01;15.40;99.90
20504;DHT22;10410;51.046;6.980;2023-09-19T06:56:06;15.40;99.90
20504;DHT22;10410;51.046;6.980;2023-09-19T07:03:07;15.50;99.90
20504;DHT22;10410;51.046;6.980;2023-09-19T07:10:13;15.50;99.90
20504;DHT22;10410;51.046;6.980;2023-09-19T07:17:14;15.60;99.90
20504;DHT22;10410;51.046;6.980;2023-09-19T07:24:18;15.70;99.90
20504;DHT22;10410;51.046;6.980;2023-09-19T07:31:18;15.70;99.90
20504;DHT22;10410;51.046;6.980;2023-09-19T07:38:19;15.80;99.90
20504;DHT22;10410;51.046;6.980;2023-09-19T07:45:21;15.80;99.90
20504;DHT22;10410;51.046;6.980;2023-09-19T07:52:21;16.00;99.90
20504;DHT22;10410;51.046;6.980;2023-09-19T07:59:22;16.10;99.90
20504;DHT22;10410;51.046;6.980;2023-09-19T08:06:23;16.20;99.90
20504;DHT22;10410;51.046;6.980;2023-09-19T08:13:24;16.30;99.90
20504;DHT22;10410;51.046;6.980;2023-09-19T08:20:24;16.50;99.90
20504;DHT22;10410;51.046;6.980;2023-09-19T08:27:25;16.60;99.90
20504;DHT22;10410;51.046;6.980;2023-09-19T08:34:28;16.80;99.90
20504;DHT22;10410;51.046;6.980;2023-09-19T08:41:32;16.80;99.90
20504;DHT22;10410;51.046;6.980;2023-09-19T08:48:34;16.90;99.90
20504;DHT22;10410;51.046;6.980;2023-09-19T08:55:36;17.00;99.90
20504;DHT22;10410;51.046;6.980;2023-09-19T09:02:40;17.10;99.90
20504;DHT22;10410;51.046;6.980;2023-09-19T09:09:41;17.30;99.90
20504;DHT22;10410;51.046;6.980;2023-09-19T09:16:42;17.40;99.90
20504;DHT22;10410;51.046;6.980;2023-09-19T09:23:43;17.60;99.90
20504;DHT22;10410;51.046;6.980;2023-09-19T09:30:43;17.80;99.90
20504;DHT22;10410;51.046;6.980;2023-09-19T09:37:44;18.00;99.90
20504;DHT22;10410;51.046;6.980;2023-09-19T09:45:12;18.20;99.90
20504;DHT22;10410;51.046;6.980;2023-09-19T09:52:13;18.30;99.90
20504;DHT22;10410;51.046;6.980;2023-09-19T09:59:17;18.60;99.90
20504;DHT22;10410;51.046;6.980;2023-09-19T10:06:18;18.80;99.90
20504;DHT22;10410;51.046;6.980;2023-09-19T10:13:30;18.80;99.90
20504;DHT22;10410;51.046;6.980;2023-09-19T10:20:31;18.80;99.90
20504;DHT22;10410;51.046;6.980;2023-09-19T10:27:32;18.80;99.90
20504;DHT22;10410;51.046;6.980;2023-09-19T10:34:39;18.90;99.90
20504;DHT22;10410;51.046;6.980;2023-09-19T10:41:42;19.00;99.90
20504;DHT22;10410;51.046;6.980;2023-09-19T10:48:45;19.10;99.90
20504;DHT22;10410;51.046;6.980;2023-09-19T10:55:51;19.20;99.90
20504;DHT22;10410;51.046;6.980;2023-09-19T11:03:16;19.30;99.90
20504;DHT22;10410;51.046;6.980;2023-09-19T11:10:48;19.40;99.90
20504;DHT22;10410;51.046;6.980;2023-09-19T11:17:49;19.60;99.90
20504;DHT22;10410;51.046;6.980;2023-09-19T11:24:52;19.60;99.90
20504;DHT22;10410;51.046;6.980;2023-09-19T11:31:56;19.70;99.90
20504;DHT22;10410;51.046;6.980;2023-09-19T11:38:58;19.80;99.90
20504;DHT22;10410;51.046;6.980;2023-09-19T11:46:01;19.80;99.90
20504;DHT22;10410;51.046;6.980;2023-09-19T11:53:02;19.80;99.90
20504;DHT22;10410;51.046;6.980;2023-09-19T12:00:03;20.00;99.90
20504;DHT22;10410;51.046;6.980;2023-09-19T12:07:13;20.00;99.90
20504;DHT22;10410;51.046;6.980;2023-09-19T12:14:24;20.20;99.90
20504;DHT22;10410;51.046;6.980;2023-09-19T12:21:30;20.20;99.90
20504;DHT22;10410;51.046;6.980;2023-09-19T12:28:41;20.40;99.90
20504;DHT22;10410;51.046;6.980;2023-09-19T12:35:42;20.70;99.90
20504;DHT22;10410;51.046;6.980;2023-09-19T12:42:45;20.80;99.90
20504;DHT22;10410;51.046;6.980;2023-09-19T12:50:06;21.20;99.90
20504;DHT22;10410;51.046;6.980;2023-09-19T12:57:07;21.30;99.90
20504;DHT22;10410;51.046;6.980;2023-09-19T13:04:18;21.30;99.90
20504;DHT22;10410;51.046;6.980;2023-09-19T13:11:20;21.60;99.90
20504;DHT22;10410;51.046;6.980;2023-09-19T13:18:21;22.10;99.90
20504;DHT22;10410;51.046;6.980;2023-09-19T13:25:23;22.50;99.90
20504;DHT22;10410;51.046;6.980;2023-09-19T13:32:24;22.60;99.90
20504;DHT22;10410;51.046;6.980;2023-09-19T13:39:24;22.30;99.90
20504;DHT22;10410;51.046;6.980;2023-09-19T13:46:25;22.10;99.90
20504;DHT22;10410;51.046;6.980;2023-09-19T13:53:27;22.10;99.90
20504;DHT22;10410;51.046;6.980;2023-09-19T14:00:28;22.10;99.90
20504;DHT22;10410;51.046;6.980;2023-09-19T14:07:28;21.90;99.90
20504;DHT22;10410;51.046;6.980;2023-09-19T14:14:29;21.70;99.90
20504;DHT22;10410;51.046;6.980;2023-09-19T14:21:29;21.60;99.90
20504;DHT22;10410;51.046;6.980;2023-09-19T14:28:30;21.40;99.90
20504;DHT22;10410;51.046;6.980;2023-09-19T14:35:30;21.30;99.90
20504;DHT22;10410;51.046;6.980;2023-09-19T14:42:31;21.10;99.90
20504;DHT22;10410;51.046;6.980;2023-09-19T14:49:35;21.10;99.90
20504;DHT22;10410;51.046;6.980;2023-09-19T14:56:38;21.20;99.90
20504;DHT22;10410;51.046;6.980;2023-09-19T15:03:42;21.40;99.90
20504;DHT22;10410;51.046;6.980;2023-09-19T15:10:49;21.60;99.90
20504;DHT22;10410;51.046;6.980;2023-09-19T15:17:52;21.40;99.90
20504;DHT22;10410;51.046;6.980;2023-09-19T15:24:52;21.20;99.90
20504;DHT22;10410;51.046;6.980;2023-09-19T15:31:55;21.00;99.90
20504;DHT22;10410;51.046;6.980;2023-09-19T15:39:01;20.80;99.90
20504;DHT22;10410;51.046;6.980;2023-09-19T15:46:01;20.70;99.90
20504;DHT22;10410;51.046;6.980;2023-09-19T15:53:03;20.60;99.90
20504;DHT22;10410;51.046;6.980;2023-09-19T16:00:05;20.50;99.90
20504;DHT22;10410;51.046;6.980;2023-09-19T16:07:10;20.50;99.90
20504;DHT22;10410;51.046;6.980;2023-09-19T16:14:11;20.50;99.90
20504;DHT22;10410;51.046;6.980;2023-09-19T16:21:16;20.40;99.90
20504;DHT22;10410;51.046;6.980;2023-09-19T16:28:17;20.40;99.90
20504;DHT22;10410;51.046;6.980;2023-09-19T16:35:17;20.40;99.90
20504;DHT22;10410;51.046;6.980;2023-09-19T16:42:18;20.40;99.90
20504;DHT22;10410;51.046;6.980;2023-09-19T16:49:21;20.30;99.90
20504;DHT22;10410;51.046;6.980;2023-09-19T16:56:21;20.30;99.90
20504;DHT22;10410;51.046;6.980;2023-09-19T17:03:22;20.30;99.90
20504;DHT22;10410;51.046;6.980;2023-09-19T17:10:24;20.10;99.90
20504;DHT22;10410;51.046;6.980;2023-09-19T17:17:24;20.00;99.90
20504;DHT22;10410;51.046;6.980;2023-09-19T17:24:24;20.00;99.90
20504;DHT22;10410;51.046;6.980;2023-09-19T17:31:26;19.80;99.90
20504;DHT22;10410;51.046;6.980;2023-09-19T17:38:27;19.70;99.90
20504;DHT22;10410;51.046;6.980;2023-09-19T17:45:27;19.60;99.90
20504;DHT22;10410;51.046;6.980;2023-09-19T17:52:28;19.60;99.90
20504;DHT22;10410;51.046;6.980;2023-09-19T17:59:28;19.50;99.90
20504;DHT22;10410;51.046;6.980;2023-09-19T18:06:29;19.40;99.90
20504;DHT22;10410;51.046;6.980;2023-09-19T18:13:32;19.40;99.90
20504;DHT22;10410;51.046;6.980;2023-09-19T18:20:34;19.30;99.90
20504;DHT22;10410;51.046;6.980;2023-09-19T18:27:34;19.30;99.90
20504;DHT22;10410;51.046;6.980;2023-09-19T18:34:37;19.20;99.90
20504;DHT22;10410;51.046;6.980;2023-09-19T18:41:37;19.20;99.90
20504;DHT22;10410;51.046;6.980;2023-09-19T18:48:40;19.20;99.90
20504;DHT22;10410;51.046;6.980;2023-09-19T18:55:45;19.20;99.90
20504;DHT22;10410;51.046;6.980;2023-09-19T19:02:46;19.10;99.90
20504;DHT22;10410;51.046;6.980;2023-09-19T19:09:47;19.10;99.90
20504;DHT22;10410;51.046;6.980;2023-09-19T19:16:48;19.10;99.90
20504;DHT22;10410;51.046;6.980;2023-09-19T19:23:50;19.00;99.90
20504;DHT22;10410;51.046;6.980;2023-09-19T19:30:52;19.00;99.90
20504;DHT22;10410;51.046;6.980;2023-09-19T19:37:52;19.00;99.90
20504;DHT22;10410;51.046;6.980;2023-09-19T19:44:53;19.00;99.90
20504;DHT22;10410;51.046;6.980;2023-09-19T19:51:54;18.90;99.90
20504;DHT22;10410;51.046;6.980;2023-09-19T19:58:55;18.90;99.90
20504;DHT22;10410;51.046;6.980;2023-09-19T20:05:55;18.90;99.90
20504;DHT22;10410;51.046;6.980;2023-09-19T20:12:56;18.90;99.90
20504;DHT22;10410;51.046;6.980;2023-09-19T20:19:57;18.90;99.90
20504;DHT22;10410;51.046;6.980;2023-09-19T20:27:00;18.90;99.90
20504;DHT22;10410;51.046;6.980;2023-09-19T20:34:01;18.90;99.90
20504;DHT22;10410;51.046;6.980;2023-09-19T20:41:01;18.80;99.90
20504;DHT22;10410;51.046;6.980;2023-09-19T20:48:03;18.80;99.90
20504;DHT22;10410;51.046;6.980;2023-09-19T20:55:05;18.70;99.90
20504;DHT22;10410;51.046;6.980;2023-09-19T21:02:06;18.70;99.90
20504;DHT22;10410;51.046;6.980;2023-09-19T21:09:06;18.70;99.90
20504;DHT22;10410;51.046;6.980;2023-09-19T21:16:09;18.70;99.90
20504;DHT22;10410;51.046;6.980;2023-09-19T21:23:11;18.70;99.90
20504;DHT22;10410;51.046;6.980;2023-09-19T21:30:14;18.70;99.90
20504;DHT22;10410;51.046;6.980;2023-09-19T21:37:15;18.70;99.90
20504;DHT22;10410;51.046;6.980;2023-09-19T21:44:17;18.60;99.90
20504;DHT22;10410;51.046;6.980;2023-09-19T21:51:17;18.60;99.90
20504;DHT22;10410;51.046;6.980;2023-09-19T21:58:18;18.60;99.90
20504;DHT22;10410;51.046;6.980;2023-09-19T22:05:23;18.60;99.90
20504;DHT22;10410;51.046;6.980;2023-09-19T22:12:24;18.60;99.90
20504;DHT22;10410;51.046;6.980;2023-09-19T22:19:26;18.60;99.90
20504;DHT22;10410;51.046;6.980;2023-09-19T22:26:26;18.60;99.90
20504;DHT22;10410;51.046;6.980;2023-09-19T22:33:28;18.60;99.90
20504;DHT22;10410;51.046;6.980;2023-09-19T22:40:28;18.50;99.90
20504;DHT22;10410;51.046;6.980;2023-09-19T22:47:30;18.50;99.90
20504;DHT22;10410;51.046;6.980;2023-09-19T22:54:31;18.50;99.90
20504;DHT22;10410;51.046;6.980;2023-09-19T23:01:36;18.50;99.90
20504;DHT22;10410;51.046;6.980;2023-09-19T23:08:41;18.50;99.90
20504;DHT22;10410;51.046;6.980;2023-09-19T23:15:42;18.50;99.90
20504;DHT22;10410;51.046;6.980;2023-09-19T23:22:44;18.40;99.90
20504;DHT22;10410;51.046;6.980;2023-09-19T23:29:44;18.40;99.90
20504;DHT22;10410;51.046;6.980;2023-09-19T23:36:45;18.30;99.90
20504;DHT22;10410;51.046;6.980;2023-09-19T23:43:47;18.20;99.90
20504;DHT22;10410;51.046;6.980;2023-09-19T23:50:51;18.10;99.90
20504;DHT22;10410;51.046;6.980;2023-09-19T23:57:51;18.00;99.90
